Time;durP1;ratioP1;P1;durP2;ratioP2;P2;SDS_P1;SDS_P2;PMS_P1;PMS_P2;Temp;Humidity;BMP_temperature;BMP_pressure;BME280_temperature;BME280_humidity;BME280_pressure;Samples;Min_cycle;Max_cycle;Signal;HPM_P1;HPM_P2
2022/05/15 00:02:21;;;;;;;3.78;1.80;;;;;;;14.72;nan;100793.72;5036348;28;20169;-79
2022/05/15 00:04:48;;;;;;;3.75;1.85;;;;;;;14.70;nan;100791.22;5044023;28;20045;-80
2022/05/15 00:07:14;;;;;;;5.22;2.10;;;;;;;14.68;nan;100789.72;5037237;28;20044;-80
2022/05/15 00:09:40;;;;;;;4.03;2.17;;;;;;;14.64;nan;100792.75;5041386;28;20033;-80
2022/05/15 00:12:07;;;;;;;3.65;2.03;;;;;;;14.61;nan;100790.44;5020097;28;20029;-80
2022/05/15 00:14:34;;;;;;;3.40;1.90;;;;;;;14.59;nan;100786.28;5035322;28;20056;-80
2022/05/15 00:17:00;;;;;;;4.88;2.08;;;;;;;14.54;nan;100784.13;5040045;28;20037;-80
2022/05/15 00:19:26;;;;;;;4.45;1.90;;;;;;;14.55;nan;100783.13;5040156;28;20037;-80
2022/05/15 00:21:52;;;;;;;2.95;1.85;;;;;;;14.57;nan;100778.47;5042313;28;20033;-80
2022/05/15 00:24:18;;;;;;;2.60;1.60;;;;;;;14.71;nan;100779.59;5036346;28;20411;-80
2022/05/15 00:26:45;;;;;;;3.50;1.52;;;;;;;14.66;nan;100776.63;5037403;28;20108;-80
2022/05/15 00:29:10;;;;;;;3.78;2.05;;;;;;;14.63;nan;100774.28;5044550;28;20045;-81
2022/05/15 00:31:36;;;;;;;3.40;1.85;;;;;;;14.62;nan;100773.44;5024430;28;20039;-81
2022/05/15 00:34:03;;;;;;;4.10;1.80;;;;;;;14.67;nan;100780.91;5033082;28;20041;-82
2022/05/15 00:36:31;;;;;;;3.67;1.60;;;;;;;14.64;nan;100774.13;5042323;28;20040;-81
2022/05/15 00:39:01;;;;;;;2.83;1.63;;;;;;;14.61;nan;100776.28;5037020;28;20087;-82
2022/05/15 00:41:27;;;;;;;2.70;1.75;;;;;;;14.58;nan;100769.47;5039624;28;20035;-81
2022/05/15 00:43:56;;;;;;;3.42;1.85;;;;;;;14.55;nan;100772.47;5038249;28;20124;-82
2022/05/15 00:46:30;;;;;;;3.00;1.70;;;;;;;14.53;nan;100769.13;5033889;28;20040;-80
2022/05/15 00:48:59;;;;;;;3.85;1.77;;;;;;;14.45;nan;100766.50;5022593;28;20033;-81
2022/05/15 00:51:29;;;;;;;3.22;1.50;;;;;;;14.37;nan;100764.72;5041047;28;20048;-81
2022/05/15 00:54:07;;;;;;;3.05;1.70;;;;;;;14.32;nan;100767.03;5036820;28;20124;-80
2022/05/15 00:56:37;;;;;;;6.70;1.70;;;;;;;14.22;nan;100769.88;5039905;28;20037;-80
2022/05/15 00:59:10;;;;;;;2.67;1.40;;;;;;;14.13;nan;100768.22;5035926;28;20135;-80
2022/05/15 01:01:38;;;;;;;2.80;1.60;;;;;;;14.07;nan;100762.78;5015277;28;20033;-80
2022/05/15 01:04:04;;;;;;;2.63;1.55;;;;;;;14.03;nan;100763.09;5031667;28;20095;-80
2022/05/15 01:06:32;;;;;;;2.40;1.50;;;;;;;13.98;nan;100761.94;5033763;28;20491;-80
2022/05/15 01:09:01;;;;;;;4.22;1.52;;;;;;;13.91;nan;100761.78;5033749;28;20041;-80
2022/05/15 01:11:28;;;;;;;2.08;1.20;;;;;;;13.85;nan;100750.97;5036524;28;20128;-81
2022/05/15 01:13:54;;;;;;;3.90;1.80;;;;;;;13.82;nan;100754.81;5017048;28;20041;-80
2022/05/15 01:16:24;;;;;;;2.10;1.27;;;;;;;13.81;nan;100750.50;5029874;28;20120;-80
2022/05/15 01:18:55;;;;;;;6.65;1.70;;;;;;;13.74;nan;100760.97;5031801;28;20025;-80
2022/05/15 01:21:28;;;;;;;2.75;1.80;;;;;;;13.75;nan;100761.78;5031093;28;20041;-80
2022/05/15 01:23:55;;;;;;;3.35;1.65;;;;;;;13.72;nan;100754.97;5041102;28;20047;-80
2022/05/15 01:26:24;;;;;;;2.63;1.40;;;;;;;13.73;nan;100754.00;5016677;28;20443;-80
2022/05/15 01:28:51;;;;;;;3.15;1.60;;;;;;;13.76;nan;100766.94;5031098;28;20064;-80
2022/05/15 01:31:18;;;;;;;2.40;2.03;;;;;;;13.75;nan;100757.31;5033485;28;20065;-80
2022/05/15 01:33:49;;;;;;;6.43;2.45;;;;;;;13.80;nan;100757.66;5021255;28;20033;-81
2022/05/15 01:36:17;;;;;;;7.53;2.72;;;;;;;13.90;nan;100751.34;5030266;28;20136;-81
2022/05/15 01:38:43;;;;;;;4.28;1.70;;;;;;;13.99;nan;100761.78;5035790;28;20495;-81
2022/05/15 01:41:12;;;;;;;2.78;1.60;;;;;;;14.00;nan;100758.13;5039300;28;20034;-80
2022/05/15 01:43:41;;;;;;;4.43;1.92;;;;;;;13.96;nan;100759.44;5034953;28;20033;-81
2022/05/15 01:46:07;;;;;;;3.25;1.90;;;;;;;13.97;nan;100760.31;5013739;28;20056;-80
2022/05/15 01:48:34;;;;;;;4.00;1.75;;;;;;;13.90;nan;100761.97;5030143;28;20052;-81
2022/05/15 01:51:00;;;;;;;1.90;1.30;;;;;;;13.84;nan;100759.97;5010540;28;20445;-80
2022/05/15 01:53:26;;;;;;;3.38;1.70;;;;;;;13.77;nan;100757.13;5034183;28;20041;-81
2022/05/15 01:55:52;;;;;;;3.38;1.70;;;;;;;13.73;nan;100758.47;5019014;28;20551;-81
2022/05/15 01:58:18;;;;;;;3.20;1.50;;;;;;;13.73;nan;100756.66;5034889;28;20522;-80
2022/05/15 02:00:46;;;;;;;3.67;1.67;;;;;;;13.72;nan;100770.09;5016034;28;20045;-81
2022/05/15 02:03:12;;;;;;;3.53;1.70;;;;;;;13.79;nan;100763.94;5029362;28;20029;-81
2022/05/15 02:05:37;;;;;;;2.72;1.58;;;;;;;13.78;nan;100762.31;5032095;28;20491;-81
2022/05/15 02:08:04;;;;;;;3.05;1.60;;;;;;;13.72;nan;100773.59;5011873;28;20045;-81
2022/05/15 02:10:30;;;;;;;3.58;2.05;;;;;;;13.70;nan;100764.94;5036741;28;20037;-81
2022/05/15 02:12:56;;;;;;;6.30;2.15;;;;;;;13.75;nan;100767.97;5013004;28;20052;-81
2022/05/15 02:15:23;;;;;;;5.32;2.55;;;;;;;13.78;nan;100767.63;5030697;28;20029;-79
2022/05/15 02:17:48;;;;;;;4.22;2.30;;;;;;;13.76;nan;100772.25;5031664;28;20034;-79
2022/05/15 02:20:15;;;;;;;3.72;2.53;;;;;;;13.75;nan;100767.97;5018185;28;20040;-81
2022/05/15 02:22:42;;;;;;;4.68;2.47;;;;;;;13.69;nan;100768.63;5012448;28;20029;-81
2022/05/15 02:25:11;;;;;;;3.03;1.90;;;;;;;13.66;nan;100760.97;5032167;28;20075;-81
2022/05/15 02:27:37;;;;;;;3.17;2.00;;;;;;;13.59;nan;100765.28;5026512;28;20029;-81
2022/05/15 02:30:04;;;;;;;2.53;1.80;;;;;;;13.55;nan;100756.81;5037015;28;20038;-81
2022/05/15 02:32:31;;;;;;;3.00;2.05;;;;;;;13.52;nan;100767.78;5029356;28;20079;-80
2022/05/15 02:34:57;;;;;;;3.70;1.85;;;;;;;13.47;nan;100771.94;5026130;28;20065;-81
2022/05/15 02:37:23;;;;;;;4.32;2.20;;;;;;;13.39;nan;100767.41;5015117;28;20487;-80
2022/05/15 02:39:50;;;;;;;3.15;1.80;;;;;;;13.31;nan;100759.44;5031973;28;20088;-80
2022/05/15 02:42:15;;;;;;;3.40;1.90;;;;;;;13.25;nan;100760.06;5034163;28;20224;-80
2022/05/15 02:44:42;;;;;;;4.32;2.40;;;;;;;13.17;nan;100752.91;5031186;28;20038;-80
2022/05/15 02:47:07;;;;;;;3.35;1.90;;;;;;;13.21;nan;100756.91;5032673;28;20396;-81
2022/05/15 02:52:17;;;;;;;4.47;2.20;;;;;;;13.14;nan;100750.59;5032348;28;20036;-80
2022/05/15 02:54:43;;;;;;;4.88;2.20;;;;;;;13.22;nan;100745.28;5014612;28;20100;-81
2022/05/15 02:57:10;;;;;;;4.72;1.92;;;;;;;13.31;nan;100746.16;5030679;28;20116;-81
2022/05/15 02:59:37;;;;;;;2.45;1.60;;;;;;;13.37;nan;100745.50;5012794;28;20030;-80
2022/05/15 03:02:04;;;;;;;3.42;1.88;;;;;;;13.45;nan;100744.69;5027467;28;20034;-80
2022/05/15 03:04:32;;;;;;;3.92;1.90;;;;;;;13.46;nan;100744.50;5030149;28;20102;-81
2022/05/15 03:06:58;;;;;;;3.72;1.80;;;;;;;13.49;nan;100749.53;5031572;28;20097;-81
2022/05/15 03:09:25;;;;;;;3.28;1.83;;;;;;;13.48;nan;100744.34;5015908;28;20406;-81
2022/05/15 03:11:52;;;;;;;2.40;1.50;;;;;;;13.43;nan;100746.69;5018172;28;20034;-79
2022/05/15 03:14:18;;;;;;;4.57;1.85;;;;;;;13.42;nan;100745.88;5014408;28;20030;-80
2022/05/15 03:16:44;;;;;;;3.08;1.83;;;;;;;13.42;nan;100745.00;5017504;28;20097;-80
2022/05/15 03:19:11;;;;;;;2.25;1.60;;;;;;;13.41;nan;100746.00;5034707;28;20503;-80
2022/05/15 03:21:37;;;;;;;3.25;1.80;;;;;;;13.45;nan;100753.50;5017053;28;20128;-80
2022/05/15 03:24:09;;;;;;;5.55;2.60;;;;;;;13.44;nan;100753.66;5017227;28;20072;-80
2022/05/15 03:26:38;;;;;;;5.07;2.13;;;;;;;13.38;nan;100752.50;5037864;28;20038;-81
2022/05/15 03:29:05;;;;;;;2.78;1.77;;;;;;;13.30;nan;100755.13;5016508;28;20085;-80
2022/05/15 03:31:35;;;;;;;2.50;1.70;;;;;;;13.25;nan;100762.72;5036495;28;20470;-80
2022/05/15 03:34:03;;;;;;;3.30;1.90;;;;;;;13.15;nan;100752.25;5018740;28;20037;-80
2022/05/15 03:36:29;;;;;;;3.97;1.90;;;;;;;13.11;nan;100759.72;5037497;28;20057;-80
2022/05/15 03:38:55;;;;;;;3.28;1.77;;;;;;;13.05;nan;100762.19;5032799;28;20099;-80
2022/05/15 03:41:22;;;;;;;6.75;2.47;;;;;;;13.02;nan;100758.03;5020573;28;20037;-80
2022/05/15 03:43:47;;;;;;;3.95;2.55;;;;;;;13.01;nan;100758.19;5034893;28;20037;-80
2022/05/15 03:46:13;;;;;;;4.00;2.25;;;;;;;12.96;nan;100762.16;5038437;28;20045;-81
2022/05/15 03:48:38;;;;;;;5.82;3.00;;;;;;;12.88;nan;100761.31;5023867;28;20580;-80
2022/05/15 03:51:04;;;;;;;3.50;2.20;;;;;;;12.84;nan;100766.09;5033945;28;20498;-80
2022/05/15 03:53:30;;;;;;;4.75;2.70;;;;;;;12.77;nan;100765.06;5017761;28;20079;-79
2022/05/15 03:55:58;;;;;;;4.00;2.50;;;;;;;12.75;nan;100767.91;5031895;28;20037;-81
2022/05/15 03:58:25;;;;;;;3.92;2.40;;;;;;;12.72;nan;100760.25;5040525;28;20034;-80
2022/05/15 04:00:51;;;;;;;3.00;2.03;;;;;;;12.72;nan;100762.91;5040949;28;20029;-80
2022/05/15 04:03:17;;;;;;;3.25;2.05;;;;;;;12.71;nan;100768.38;5036469;28;20302;-80
2022/05/15 04:05:42;;;;;;;3.40;1.95;;;;;;;12.69;nan;100770.38;5039589;28;20040;-80
2022/05/15 04:08:07;;;;;;;3.25;2.10;;;;;;;12.65;nan;100769.84;5036510;28;20034;-80
2022/05/15 04:10:33;;;;;;;2.78;1.85;;;;;;;12.66;nan;100763.56;5040572;28;20041;-80
2022/05/15 04:12:58;;;;;;;3.00;1.80;;;;;;;12.67;nan;100770.50;5032818;28;20044;-81
2022/05/15 04:15:23;;;;;;;3.63;1.80;;;;;;;12.68;nan;100774.84;5026707;28;20041;-81
2022/05/15 04:17:50;;;;;;;3.42;1.80;;;;;;;12.69;nan;100770.38;5043137;28;20060;-81
2022/05/15 04:20:19;;;;;;;4.25;1.90;;;;;;;12.67;nan;100785.59;5035203;28;20064;-81
2022/05/15 04:22:45;;;;;;;4.22;2.00;;;;;;;12.65;nan;100787.59;5018613;28;20056;-81
2022/05/15 04:25:13;;;;;;;3.40;1.85;;;;;;;12.61;nan;100791.53;5027840;28;20081;-81
2022/05/15 04:27:40;;;;;;;2.95;2.08;;;;;;;12.58;nan;100789.22;5014871;28;20495;-81
2022/05/15 04:30:06;;;;;;;3.35;1.90;;;;;;;12.51;nan;100799.59;5015023;28;20143;-81
2022/05/15 04:32:32;;;;;;;2.97;2.03;;;;;;;12.47;nan;100790.34;5042076;28;20064;-81
2022/05/15 04:34:57;;;;;;;3.20;2.00;;;;;;;12.42;nan;100777.53;5031450;28;20037;-80
2022/05/15 04:37:22;;;;;;;3.47;2.03;;;;;;;12.41;nan;100783.00;5032769;28;20038;-81
2022/05/15 04:39:48;;;;;;;3.22;1.80;;;;;;;12.40;nan;100782.16;5020804;28;20033;-80
2022/05/15 04:42:13;;;;;;;3.42;2.30;;;;;;;12.41;nan;100781.16;5031971;28;20042;-80
2022/05/15 04:44:39;;;;;;;3.42;2.25;;;;;;;12.43;nan;100787.16;5033920;28;20036;-80
2022/05/15 04:47:05;;;;;;;3.33;2.10;;;;;;;12.46;nan;100776.22;5030852;28;20585;-80
2022/05/15 04:49:30;;;;;;;3.80;2.20;;;;;;;12.48;nan;100782.19;5037691;28;20052;-80
2022/05/15 04:51:55;;;;;;;2.70;1.90;;;;;;;12.49;nan;100778.56;5034884;28;20411;-80
2022/05/15 04:54:21;;;;;;;3.58;1.98;;;;;;;12.54;nan;100778.91;5020708;28;20068;-80
2022/05/15 04:56:46;;;;;;;3.47;2.15;;;;;;;12.56;nan;100785.88;5034988;28;20033;-81
2022/05/15 04:59:11;;;;;;;4.60;2.42;;;;;;;12.58;nan;100797.16;5031675;28;20075;-80
2022/05/15 05:01:37;;;;;;;4.63;3.03;;;;;;;12.63;nan;100785.09;5034072;28;20032;-79
2022/05/15 05:04:02;;;;;;;4.03;2.47;;;;;;;12.68;nan;100781.94;5036905;28;20036;-80
2022/05/15 05:06:28;;;;;;;4.40;2.88;;;;;;;12.75;nan;100782.97;5033184;28;20495;-80
2022/05/15 05:08:54;;;;;;;5.93;2.67;;;;;;;12.84;nan;100784.69;5026917;28;20683;-80
2022/05/15 05:11:19;;;;;;;3.78;2.33;;;;;;;12.95;nan;100781.72;5036745;28;20034;-80
2022/05/15 05:13:45;;;;;;;3.40;2.05;;;;;;;13.06;nan;100785.94;5034120;28;20038;-81
2022/05/15 05:16:11;;;;;;;3.53;2.08;;;;;;;13.21;nan;100785.31;5035868;28;20095;-81
2022/05/15 05:18:37;;;;;;;4.15;2.08;;;;;;;13.33;nan;100782.19;5039230;28;20057;-80
2022/05/15 05:21:03;;;;;;;3.55;2.00;;;;;;;13.49;nan;100781.41;5030330;28;20037;-80
2022/05/15 05:23:28;;;;;;;2.83;1.90;;;;;;;13.65;nan;100783.22;5038317;28;20036;-80
2022/05/15 05:25:54;;;;;;;3.42;2.28;;;;;;;13.87;nan;100787.06;5037274;28;20124;-80
2022/05/15 05:28:20;;;;;;;3.50;2.30;;;;;;;14.15;nan;100798.16;5033727;28;20120;-80
2022/05/15 05:30:45;;;;;;;4.22;2.53;;;;;;;14.43;nan;100798.59;5039073;28;20063;-80
2022/05/15 05:33:11;;;;;;;3.50;2.10;;;;;;;14.80;nan;100801.66;5044101;28;20086;-81
2022/05/15 05:35:38;;;;;;;4.50;2.58;;;;;;;15.13;nan;100807.66;5036194;28;20029;-80
2022/05/15 05:38:04;;;;;;;6.10;3.22;;;;;;;15.51;nan;100813.91;5033372;28;20029;-80
2022/05/15 05:40:30;;;;;;;4.05;3.03;;;;;;;15.90;nan;100805.00;5035519;28;20033;-81
2022/05/15 05:42:55;;;;;;;4.20;3.10;;;;;;;16.19;nan;100814.09;5023112;28;20047;-81
2022/05/15 05:45:21;;;;;;;4.85;2.85;;;;;;;16.64;nan;100819.47;5033634;28;20118;-81
2022/05/15 05:47:48;;;;;;;3.63;2.40;;;;;;;17.20;nan;100812.59;5038775;28;20217;-80
2022/05/15 05:50:15;;;;;;;3.65;2.50;;;;;;;17.67;nan;100814.94;5038423;28;20040;-81
2022/05/15 05:52:41;;;;;;;4.20;2.65;;;;;;;18.10;nan;100821.09;5036177;28;20033;-80
2022/05/15 05:55:11;;;;;;;3.72;2.55;;;;;;;18.57;nan;100824.09;5033738;28;20036;-80
2022/05/15 05:57:37;;;;;;;3.13;1.98;;;;;;;18.97;nan;100830.50;5033820;28;20136;-81
2022/05/15 06:00:08;;;;;;;2.92;2.00;;;;;;;19.37;nan;100827.16;5033444;28;20061;-80
2022/05/15 06:02:33;;;;;;;4.25;2.20;;;;;;;19.76;nan;100831.81;5015850;28;20074;-81
2022/05/15 06:04:58;;;;;;;3.58;2.30;;;;;;;20.07;nan;100825.81;5046141;28;20524;-81
2022/05/15 06:07:26;;;;;;;3.42;2.25;;;;;;;20.35;nan;100814.00;5030860;28;20030;-80
2022/05/15 06:09:52;;;;;;;3.50;2.30;;;;;;;20.76;nan;100823.66;5033915;28;20048;-81
2022/05/15 06:12:21;;;;;;;4.05;2.00;;;;;;;21.06;nan;100815.88;5034885;28;20694;-81
2022/05/15 06:14:47;;;;;;;2.95;1.77;;;;;;;21.36;nan;100818.84;5030411;28;20598;-81
2022/05/15 06:17:12;;;;;;;3.45;2.42;;;;;;;21.50;nan;100818.78;5034026;28;20188;-81
2022/05/15 06:19:38;;;;;;;4.72;1.92;;;;;;;21.70;nan;100810.59;5040077;28;20025;-81
2022/05/15 06:22:04;;;;;;;5.85;2.65;;;;;;;21.93;nan;100818.06;5035456;28;20088;-81
2022/05/15 06:24:30;;;;;;;4.63;2.47;;;;;;;22.15;nan;100813.13;5027982;28;20041;-82
2022/05/15 06:27:02;;;;;;;3.97;2.60;;;;;;;22.06;nan;100809.88;5031841;28;20618;-81
2022/05/15 06:29:28;;;;;;;6.70;3.00;;;;;;;22.15;nan;100811.25;5029261;28;20050;-81
2022/05/15 06:31:53;;;;;;;3.55;2.50;;;;;;;22.19;nan;100807.06;5031652;28;20045;-82
2022/05/15 06:34:19;;;;;;;5.88;2.50;;;;;;;;;;5031830;28;20076;-81
2022/05/15 06:36:44;;;;;;;3.17;2.10;;;;;;;22.75;nan;100807.13;5027887;28;20061;-83
2022/05/15 06:39:10;;;;;;;5.15;2.70;;;;;;;22.79;nan;100811.03;5012666;28;20025;-81
2022/05/15 06:41:36;;;;;;;4.90;2.70;;;;;;;22.92;nan;100810.03;5033885;28;20048;-82
2022/05/15 06:44:02;;;;;;;4.85;2.50;;;;;;;22.96;nan;100803.97;5033384;28;20037;-82
2022/05/15 06:46:28;;;;;;;4.78;2.42;;;;;;;23.14;nan;100808.53;5030383;28;20041;-82
2022/05/15 06:48:53;;;;;;;4.20;2.40;;;;;;;23.19;nan;100806.00;5032700;28;20030;-81
2022/05/15 06:51:18;;;;;;;5.07;2.35;;;;;;;23.35;nan;100809.91;5033122;28;20030;-82
2022/05/15 06:53:46;;;;;;;4.45;2.33;;;;;;;23.59;nan;100808.09;5035777;28;20069;-81
2022/05/15 06:58:55;;;;;;;3.95;2.28;;;;;;;23.87;nan;100801.25;5034166;28;20044;-83
2022/05/15 07:01:21;;;;;;;3.70;2.35;;;;;;;23.97;nan;100796.09;5034934;28;20625;-83
2022/05/15 07:03:46;;;;;;;4.13;2.40;;;;;;;24.09;nan;100806.91;5036077;28;20034;-82
2022/05/15 07:06:12;;;;;;;4.75;2.50;;;;;;;24.01;nan;100799.16;5038253;28;20045;-82
2022/05/15 07:08:39;;;;;;;3.72;2.20;;;;;;;24.20;nan;100799.88;5041059;28;20037;-82
2022/05/15 07:11:04;;;;;;;4.88;2.42;;;;;;;24.44;nan;100800.69;5037166;28;20240;-81
2022/05/15 07:13:32;;;;;;;5.75;2.47;;;;;;;24.69;nan;100795.81;5018116;28;20034;-82
2022/05/15 07:15:58;;;;;;;4.65;3.13;;;;;;;24.52;nan;100803.03;5040835;28;20140;-82
2022/05/15 07:18:24;;;;;;;3.80;2.42;;;;;;;24.67;nan;100800.66;5039506;28;20058;-82
2022/05/15 07:20:51;;;;;;;4.43;2.83;;;;;;;24.60;nan;100799.97;5035827;28;20406;-81
2022/05/15 07:23:17;;;;;;;3.08;2.22;;;;;;;24.87;nan;100799.44;5036590;28;20042;-81
2022/05/15 07:25:42;;;;;;;5.05;2.67;;;;;;;25.24;nan;100796.38;5042723;28;20037;-81
2022/05/15 07:28:07;;;;;;;3.50;2.33;;;;;;;25.46;nan;100802.75;5036337;28;20126;-81
2022/05/15 07:30:33;;;;;;;4.55;2.28;;;;;;;25.81;nan;100797.13;5036912;28;20033;-81
2022/05/15 07:32:58;;;;;;;5.22;2.40;;;;;;;26.26;nan;100806.19;5041704;28;20044;-81
2022/05/15 07:35:24;;;;;;;4.07;2.22;;;;;;;26.15;nan;100798.97;5018500;28;20033;-81
2022/05/15 07:37:49;;;;;;;3.72;2.10;;;;;;;25.95;nan;100804.91;5040316;28;20068;-82
2022/05/15 07:40:14;;;;;;;3.75;1.90;;;;;;;26.24;nan;100805.63;5041163;28;20091;-83
2022/05/15 07:42:41;;;;;;;3.15;1.48;;;;;;;26.76;nan;100799.03;5035415;28;20040;-82
2022/05/15 07:45:07;;;;;;;3.83;1.92;;;;;;;26.82;nan;100800.72;5040430;28;20446;-81
2022/05/15 07:47:33;;;;;;;4.30;2.20;;;;;;;26.70;nan;100806.28;5035013;28;20033;-83
2022/05/15 07:49:58;;;;;;;3.22;2.05;;;;;;;26.85;nan;100803.75;5034871;28;20103;-82
2022/05/15 07:52:24;;;;;;;2.33;1.50;;;;;;;27.43;nan;100808.72;5023556;28;20034;-82
2022/05/15 07:54:50;;;;;;;4.07;1.92;;;;;;;27.61;nan;100808.34;5040315;28;20563;-82
2022/05/15 07:57:15;;;;;;;3.20;1.55;;;;;;;28.09;nan;100711.41;5036969;28;20037;-82
2022/05/15 07:59:41;;;;;;;3.42;1.95;;;;;;;28.52;nan;100765.78;5032679;28;20087;-82
2022/05/15 08:02:06;;;;;;;4.47;2.15;;;;;;;;;;5034187;28;20040;-81
2022/05/15 08:10:01;;;;;;;4.80;1.98;;;;;;;28.74;nan;100703.78;5035033;28;20056;-81
2022/05/15 08:12:26;;;;;;;3.33;1.63;;;;;;;;;;5036413;28;20442;-81
2022/05/15 08:14:51;;;;;;;3.72;2.05;;;;;;;28.86;nan;100678.22;5037104;28;20311;-81
2022/05/15 08:17:17;;;;;;;4.13;1.60;;;;;;;29.10;nan;100705.78;5019326;28;20034;-80
2022/05/15 08:25:10;;;;;;;3.58;1.70;;;;;;;;;;5037362;28;20095;-81
2022/05/15 08:27:35;;;;;;;1.70;1.00;;;;;;;30.53;nan;100707.44;5033563;28;20445;-81
2022/05/15 08:30:00;;;;;;;2.70;1.40;;;;;;;31.10;nan;100665.03;5035389;28;20320;-81
2022/05/15 08:32:26;;;;;;;3.30;1.75;;;;;;;31.68;nan;100700.63;5034775;28;20268;-81
2022/05/15 08:34:52;;;;;;;5.57;2.20;;;;;;;31.71;nan;100677.34;5016253;28;20105;-81
2022/05/15 08:37:17;;;;;;;3.60;2.00;;;;;;;;;;5035600;28;20053;-81
2022/05/15 08:39:42;;;;;;;3.67;1.90;;;;;;;31.95;nan;100693.81;5015919;28;20026;-81
2022/05/15 08:42:21;;;;;;;3.03;1.65;;;;;;;32.29;nan;100698.31;5017388;28;20033;-81
2022/05/15 08:44:47;;;;;;;4.00;1.67;;;;;;;32.79;nan;100663.13;5036278;28;20065;-81
2022/05/15 08:47:43;;;;;;;2.92;1.42;;;;;;;32.79;nan;100680.38;5036369;28;20415;-81
2022/05/15 08:50:12;;;;;;;3.85;1.70;;;;;;;32.89;nan;100684.06;5036629;28;20037;-81
2022/05/15 08:52:43;;;;;;;2.88;1.70;;;;;;;32.74;nan;100707.84;5019381;28;20521;-81
2022/05/15 08:55:19;;;;;;;2.97;1.33;;;;;;;33.81;nan;100682.53;5020903;28;20044;-81
2022/05/15 08:58:00;;;;;;;1.85;1.00;;;;;;;34.47;nan;100696.84;5036282;28;20041;-81
2022/05/15 09:00:31;;;;;;;2.80;1.42;;;;;;;34.97;nan;100687.72;5036837;28;20064;-82
2022/05/15 09:03:11;;;;;;;2.95;1.30;;;;;;;35.41;nan;100719.91;5031968;28;20044;-81
2022/05/15 09:05:37;;;;;;;4.03;1.40;;;;;;;35.22;nan;100766.03;5034458;28;20052;-81
2022/05/15 09:08:17;;;;;;;;;;;;;;;34.82;nan;100763.91;5037773;28;20291;-81
2022/05/15 09:10:56;;;;;;;2.95;1.38;;;;;;;34.99;nan;100762.44;5040001;28;19921;-81
2022/05/15 09:13:33;;;;;;;2.53;1.17;;;;;;;35.44;nan;100766.03;5039137;28;20038;-81
2022/05/15 09:16:02;;;;;;;2.85;1.40;;;;;;;35.52;nan;100769.97;5013447;28;20029;-81
2022/05/15 09:18:29;;;;;;;4.45;1.58;;;;;;;35.41;nan;100766.66;5020613;28;20033;-83
2022/05/15 09:21:02;;;;;;;2.60;1.13;;;;;;;35.89;nan;100768.72;5036944;28;20037;-82
2022/05/15 09:23:37;;;;;;;2.50;1.10;;;;;;;36.27;nan;100761.94;5028959;28;20034;-82
2022/05/15 09:26:06;;;;;;;1.98;1.20;;;;;;;36.76;nan;100763.53;5026838;28;20094;-83
2022/05/15 09:28:41;;;;;;;2.53;1.30;;;;;;;37.50;nan;100758.16;5029513;28;20107;-83
2022/05/15 09:31:21;;;;;;;3.92;1.50;;;;;;;37.61;nan;100760.28;5019210;28;20047;-83
2022/05/15 09:33:51;;;;;;;2.55;1.25;;;;;;;37.55;nan;100761.56;5029333;28;20198;-83
2022/05/15 09:36:25;;;;;;;1.58;0.90;;;;;;;38.00;nan;100761.13;5020507;28;20033;-83
2022/05/15 09:39:18;;;;;;;2.38;1.30;;;;;;;38.05;nan;100762.91;5035774;28;20518;-81
2022/05/15 09:44:41;;;;;;;2.83;1.10;;;;;;;38.45;nan;100754.22;5032974;28;20072;-84
2022/05/15 09:47:09;;;;;;;1.90;1.00;;;;;;;38.60;nan;100750.88;5024294;28;20571;-83
2022/05/15 09:49:35;;;;;;;;;;;;;;;38.72;nan;100744.63;5029415;28;20042;-83
2022/05/15 09:52:10;;;;;;;2.10;1.07;;;;;;;38.06;nan;100739.66;5029261;28;19924;-84
2022/05/15 09:54:37;;;;;;;3.83;1.30;;;;;;;38.34;nan;100736.41;5036398;28;20048;-84
2022/05/15 09:57:25;;;;;;;2.30;1.05;;;;;;;38.44;nan;100733.25;5033479;28;20507;-84
2022/05/15 09:59:56;;;;;;;2.28;1.20;;;;;;;38.71;nan;100725.59;5019844;28;20128;-85
2022/05/15 10:02:24;;;;;;;3.88;1.55;;;;;;;39.43;nan;100732.63;5035532;28;20041;-84
2022/05/15 10:04:52;;;;;;;2.97;1.20;;;;;;;39.07;nan;100723.03;5038084;28;20128;-84
2022/05/15 10:07:38;;;;;;;2.55;1.30;;;;;;;39.10;nan;100727.09;5042927;28;20034;-84
2022/05/15 10:10:32;;;;;;;1.95;1.13;;;;;;;40.28;nan;100727.50;5021454;28;20056;-84
2022/05/15 10:13:05;;;;;;;2.20;1.27;;;;;;;40.64;nan;100721.09;5037965;28;20434;-84
2022/05/15 10:15:46;;;;;;;3.67;1.23;;;;;;;41.04;nan;100720.25;5032311;28;20429;-84
2022/05/15 10:18:18;;;;;;;2.47;1.00;;;;;;;40.70;nan;100708.63;5035986;28;20041;-84
2022/05/15 10:20:47;;;;;;;3.20;1.45;;;;;;;41.22;nan;100717.22;5039934;28;20492;-85
2022/05/15 10:23:21;;;;;;;2.65;0.95;;;;;;;41.13;nan;100711.81;5037898;28;20508;-84
2022/05/15 10:25:59;;;;;;;2.20;1.08;;;;;;;41.32;nan;100716.69;5035873;28;20048;-84
2022/05/15 10:28:27;;;;;;;2.03;0.80;;;;;;;41.86;nan;100706.91;5020073;28;20037;-84
2022/05/15 10:31:10;;;;;;;1.60;0.80;;;;;;;42.60;nan;100705.06;5028507;28;20078;-84
2022/05/15 10:33:38;;;;;;;3.10;1.20;;;;;;;42.37;nan;100702.22;5022515;28;20072;-85
2022/05/15 10:36:28;;;;;;;2.72;1.00;;;;;;;42.31;nan;100698.09;5031317;28;20124;-84
2022/05/15 10:39:16;;;;;;;2.38;1.00;;;;;;;42.74;nan;100690.66;5029045;28;20095;-84
2022/05/15 10:41:58;;;;;;;2.28;0.88;;;;;;;42.97;nan;100685.16;5042215;28;20491;-84
2022/05/15 10:44:29;;;;;;;2.70;1.08;;;;;;;42.72;nan;100681.88;5037980;28;20087;-84
2022/05/15 10:47:17;;;;;;;3.08;0.98;;;;;;;42.40;nan;100684.78;5037293;28;20087;-84
2022/05/15 10:50:18;;;;;;;1.75;0.80;;;;;;;42.85;nan;100672.22;5020302;28;20044;-84
2022/05/15 10:52:49;;;;;;;2.28;0.98;;;;;;;43.03;nan;100667.00;5040975;28;20177;-84
2022/05/15 10:58:32;;;;;;;2.65;1.05;;;;;;;43.03;nan;100666.19;5036872;28;20510;-84
2022/05/15 11:01:27;;;;;;;1.85;0.80;;;;;;;43.69;nan;100666.94;5030792;28;20072;-84
2022/05/15 11:04:15;;;;;;;2.67;0.88;;;;;;;43.77;nan;100662.31;5035154;28;20040;-84
2022/05/15 11:06:49;;;;;;;2.33;1.05;;;;;;;44.06;nan;100657.97;5014849;28;20037;-84
2022/05/15 11:09:53;;;;;;;3.90;0.90;;;;;;;44.27;nan;100652.69;5034052;28;20060;-84
2022/05/15 11:12:36;;;;;;;2.60;0.90;;;;;;;42.91;nan;100646.88;5033028;28;20042;-84
2022/05/15 11:15:17;;;;;;;2.60;0.95;;;;;;;42.89;nan;100652.03;5038502;28;20033;-84
2022/05/15 11:17:49;;;;;;;3.58;0.90;;;;;;;42.85;nan;100644.41;5041335;28;20069;-84
2022/05/15 11:20:20;;;;;;;1.95;0.98;;;;;;;42.93;nan;100641.75;5031380;28;20051;-84
2022/05/15 11:22:49;;;;;;;2.08;0.85;;;;;;;43.68;nan;100638.28;5032817;28;20045;-84
2022/05/15 11:25:27;;;;;;;1.70;0.90;;;;;;;44.60;nan;100639.13;5031164;28;20507;-82
2022/05/15 11:28:06;;;;;;;2.15;0.93;;;;;;;45.04;nan;100630.84;5036313;28;20319;-82
2022/05/15 11:30:37;;;;;;;1.93;1.00;;;;;;;45.90;nan;100630.72;5040304;28;20105;-80
2022/05/15 11:33:04;;;;;;;1.60;0.70;;;;;;;45.86;nan;100630.69;5044777;28;20068;-80
2022/05/15 11:35:35;;;;;;;2.88;0.80;;;;;;;46.33;nan;100622.53;5041594;28;20029;-80
2022/05/15 11:38:06;;;;;;;1.05;0.63;;;;;;;46.96;nan;100621.13;5040171;28;20069;-80
2022/05/15 11:40:32;;;;;;;2.17;0.90;;;;;;;47.03;nan;100609.13;5039656;28;20076;-80
2022/05/15 11:42:58;;;;;;;4.07;1.13;;;;;;;46.99;nan;100617.53;5037051;28;20033;-80
2022/05/15 11:45:35;;;;;;;2.42;0.98;;;;;;;45.42;nan;100611.25;5030477;28;20239;-80
2022/05/15 11:48:18;;;;;;;2.90;0.90;;;;;;;45.30;nan;100607.56;5038054;28;20514;-80
2022/05/15 11:50:59;;;;;;;1.88;0.80;;;;;;;45.61;nan;100608.19;5033876;28;20041;-80
2022/05/15 11:53:31;;;;;;;2.42;0.90;;;;;;;45.97;nan;100612.00;5040364;28;20033;-80
2022/05/15 11:55:59;;;;;;;1.83;0.90;;;;;;;45.72;nan;100608.25;5016011;28;20038;-81
2022/05/15 11:58:33;;;;;;;3.35;0.80;;;;;;;44.98;nan;100595.28;5023606;28;20049;-80
2022/05/15 12:01:02;;;;;;;2.20;1.00;;;;;;;45.06;nan;100594.19;5035720;28;20034;-81
2022/05/15 12:03:39;;;;;;;1.95;0.80;;;;;;;45.15;nan;100597.44;5037151;28;20037;-81
2022/05/15 12:06:17;;;;;;;1.50;0.80;;;;;;;45.10;nan;100606.16;5032225;28;20044;-81
2022/05/15 12:08:53;;;;;;;1.98;0.90;;;;;;;45.08;nan;100597.41;5030975;28;22003;-81
2022/05/15 12:11:18;;;;;;;4.28;1.00;;;;;;;44.50;nan;100602.38;5035207;28;20037;-81
2022/05/15 12:13:45;;;;;;;2.60;0.77;;;;;;;43.50;nan;100603.75;5039394;28;20114;-80
2022/05/15 12:16:51;;;;;;;1.95;0.80;;;;;;;41.68;nan;100585.13;5034188;28;20033;-81